WetterOnline ( https://www.wetteronline.de )

Wetter aktuell Erndtebrück

Aktuelles Wetter: Kahler Asten (841m)

6-stündlich | Neueste Meldungen
Ortszeit Temperatur Wetter
Fr, 01.07. 2:00 10.1° C Nebel
Do, 30.06. 20:00 23.3° C leicht bewölkt
Do, 30.06. 14:00 23.0° C leicht bewölkt
Do, 30.06. 8:00 18.1° C wolkenlos
Do, 30.06. 2:00 15.8° C bewölkt
Mi, 29.06. 20:00 20.2° C bedeckt
Mi, 29.06. 14:00 20.4° C leicht bewölkt
Mi, 29.06. 8:00 14.3° C bewölkt
Ortszeit Temperatur Wetter
Fr, 01.07. 6:30 8.5° C Nebel
Fr, 01.07. 6:20 8.5° C Nebel
Fr, 01.07. 6:10 8.7° C Sprühregen
Fr, 01.07. 6:00 8.8° C leichter Regen
Fr, 01.07. 5:50 8.8° C leichter Regen
Fr, 01.07. 5:40 9.0° C leichter Regen
Fr, 01.07. 5:30 9.3° C leichter Regen
Fr, 01.07. 5:00 9.4° C Nebel
Fr, 01.07. 4:30 9.6° C leichter Regen
Fr, 01.07. 4:00 9.5° C leichter Regen
Fr, 01.07. 3:30 9.6° C Nebel
Ortszeit Relative Feuchte Sichtweite
Fr, 01.07. 2:00 99% 1.6 km
Do, 30.06. 20:00 49% 55 km
Do, 30.06. 14:00 48% 65 km
Do, 30.06. 8:00 84% 26 km
Do, 30.06. 2:00 93% 17 km
Mi, 29.06. 20:00 58% 65 km
Mi, 29.06. 14:00 59% 40 km
Mi, 29.06. 8:00 65% >70 km
Ortszeit Relative Feuchte Sichtweite
Fr, 01.07. 6:30 99% 0.5 km
Fr, 01.07. 6:20 99% -
Fr, 01.07. 6:10 100% -
Fr, 01.07. 6:00 99% 100 m
Fr, 01.07. 5:50 99% -
Fr, 01.07. 5:40 99% -
Fr, 01.07. 5:30 99% 100 m
Fr, 01.07. 5:00 99% 0.3 km
Fr, 01.07. 4:30 100% 100 m
Fr, 01.07. 4:00 100% 100 m
Fr, 01.07. 3:30 100% 100 m
Ortszeit Niederschlagsmenge Niederschlagsart
Fr, 01.07. 2:00 0.1 l/m2 in 6 Std. Regen
Do, 30.06. 20:00 0.0 l/m2 in 12 Std. -
Do, 30.06. 14:00 0.0 l/m2 in 6 Std. -
Do, 30.06. 8:00 0.1 l/m2 in 12 Std. -
Do, 30.06. 2:00 0.1 l/m2 in 6 Std. Sprühregen
Mi, 29.06. 20:00 0.1 l/m2 in 12 Std. Sprühregen
Mi, 29.06. 14:00 0.0 l/m2 in 6 Std. -
Mi, 29.06. 8:00 0.1 l/m2 in 12 Std. Regen
Ortszeit Niederschlagsmenge Niederschlagsart
Fr, 01.07. 6:30 0.1 l/m2 in 1 Std. -
Fr, 01.07. 6:20 keine Meldung -
Fr, 01.07. 6:10 keine Meldung -
Fr, 01.07. 6:00 0.7 l/m2 in 1 Std. Regen
Fr, 01.07. 5:50 keine Meldung -
Fr, 01.07. 5:40 keine Meldung -
Fr, 01.07. 5:30 0.1 l/m2 in 1 Std. -
Fr, 01.07. 5:00 0.3 l/m2 in 1 Std. Regen
Fr, 01.07. 4:30 0.1 l/m2 in 1 Std. -
Fr, 01.07. 4:00 0.1 l/m2 in 1 Std. Regen
Fr, 01.07. 3:30 0.0 l/m2 in 1 Std. -
Ortszeit Stärke Spitze Richtung
km/h Bft. km/h Grad Sektor
Fr, 01.07. 2:00 30 5 54 300° NW
Do, 30.06. 20:00 18 3 40 150° SO
Do, 30.06. 14:00 7 2 18 30° NO
Do, 30.06. 8:00 7 2 22 230° SW
Do, 30.06. 2:00 11 2 29 100° O
Mi, 29.06. 20:00 9 2 31 90° O
Mi, 29.06. 14:00 17 3 37 100° O
Mi, 29.06. 8:00 18 3 36 100° O
Ortszeit Stärke Spitze Richtung
km/h Bft. km/h Grad Sektor
Fr, 01.07. 6:30 25 4 40 280° W
Fr, 01.07. 6:20 25 4 - 280° W
Fr, 01.07. 6:10 26 4 - 270° W
Fr, 01.07. 6:00 26 4 35 260° W
Fr, 01.07. 5:50 26 4 - 260° W
Fr, 01.07. 5:40 22 4 - 250° W
Fr, 01.07. 5:30 17 3 26 260° W
Fr, 01.07. 5:00 18 3 32 270° W
Fr, 01.07. 4:30 14 3 29 270° W
Fr, 01.07. 4:00 18 3 43 290° W
Fr, 01.07. 3:30 22 4 43 280° W
Ortszeit Untergrenze Bedeckung Gattung
total tief tief mittel hoch
Fr, 01.07. 2:00 60 m 8/8 7/8 - - -
Do, 30.06. 20:00 9000 m 5/8 0/8 - - -
Do, 30.06. 14:00 2100 m 2/8 2/8 - - -
Do, 30.06. 8:00 - 0/8 0/8 - - -
Do, 30.06. 2:00 1800 m 7/8 7/8 - - -
Mi, 29.06. 20:00 1350 m 8/8 8/8 - - -
Mi, 29.06. 14:00 960 m 4/8 4/8 - - -
Mi, 29.06. 8:00 1500 m 7/8 7/8 - - -
Ortszeit Bedeckungsgrad in Achtel und Wolkenuntergrenze
Fr, 01.07. 6:30 8(<30m)
Fr, 01.07. 6:20 8(<30m)
Fr, 01.07. 6:10 8
Fr, 01.07. 6:00 8(<30m)
Fr, 01.07. 5:50 8(<30m)
Fr, 01.07. 5:40 8
Fr, 01.07. 5:30 7(<30m)
Fr, 01.07. 5:00 7(<30m)
Fr, 01.07. 4:30 7(<30m)
Fr, 01.07. 4:00 8(<30m)
Fr, 01.07. 3:30 8(<30m)
Ortszeit Stationsdruck (hPa) Tendenz (hPa in 3 Std.)
Fr, 01.07. 2:00 915 + 0,5
Do, 30.06. 20:00 914 - 1,1
Do, 30.06. 14:00 916 - 0,5
Do, 30.06. 8:00 916 - 0,1
Do, 30.06. 2:00 917 + 0,1
Mi, 29.06. 20:00 917 - 0,7
Mi, 29.06. 14:00 918 - 0,3
Mi, 29.06. 8:00 919 - 0,6
Ortszeit Stationsdruck (hPa) Tendenz (hPa in 3 Std.)
Fr, 01.07. 6:30 917 + 0,3
Fr, 01.07. 6:20 917 keine Meldung
Fr, 01.07. 6:10 917 keine Meldung
Fr, 01.07. 6:00 917 + 1,0
Fr, 01.07. 5:50 917 keine Meldung
Fr, 01.07. 5:40 918 keine Meldung
Fr, 01.07. 5:30 918 + 1,7
Fr, 01.07. 5:00 918 + 2,1
Fr, 01.07. 4:30 917 + 1,4
Fr, 01.07. 4:00 917 + 1,1
Fr, 01.07. 3:30 917 + 1,1
Ortszeit Schneehöhe (cm)
Fr, 01.07. 2:00 -
Do, 30.06. 20:00 -
Do, 30.06. 14:00 -
Do, 30.06. 8:00 -
Do, 30.06. 2:00 -
Mi, 29.06. 20:00 -
Mi, 29.06. 14:00 -
Mi, 29.06. 8:00 -
Ortszeit Schneehöhe (cm)
Fr, 01.07. 6:30 -
Fr, 01.07. 6:20 -
Fr, 01.07. 6:10 -
Fr, 01.07. 6:00 -
Fr, 01.07. 5:50 -
Fr, 01.07. 5:40 -
Fr, 01.07. 5:30 -
Fr, 01.07. 5:00 -
Fr, 01.07. 4:30 -
Fr, 01.07. 4:00 -
Fr, 01.07. 3:30 -
Link zu dieser Seite / Seite empfehlen

Das Wetter in ...